TFM - Tactical Decision Aid
ID: Runway Winds: CIG/VIS Threshold:

KATL - Atlanta/Hartsfield-J, GA, US

Updated at: 2135 UTC 17 Jun 2019
Latest TAF at: 1952 UTC 17 Jun 2019

TAF Board

Time2052Z 17/22Z 17/23Z 18/00Z 18/01Z 18/02Z 18/03Z 18/04Z 18/05Z 18/06Z 18/07Z 18/08Z 18/09Z 18/10Z>>
Type OBS PRVL
  [TEMP]  
PRVL PRVL PRVL PRVL PRVL PRVL PRVL PRVL PRVL PRVL PRVL PRVL
VIS 10 >6
  [3]  
>6 >6 >6 >6 >6 >6 >6 >6 >6 >6 >6 >6
CIG -- --
  [40]  
-- -- -- 250 250 250 250 250 250 250 250 250
Cover SCT SCT
  [BKN]  
SCT SCT SCT BKN BKN BKN BKN BKN BKN BKN BKN BKN
FltCat VFR VFR
  [MVFR]  
VFR VFR VFR VFR VFR VFR VFR VFR VFR VFR VFR VFR
WX -- --
  [TSRA]  
-- -- -- -- -- -- -- -- -- -- -- --
WDir 210 200
[VRB]
200 200 200 190 190 190 190 190 190 190 190 190
WSpd 6 7
  [10]  
7 7 7 5 5 5 5 5 5 5 5 5
WGst -- --
  [20]  
-- -- -- -- -- -- -- -- -- -- -- --

TDA Impact Legend

  None Marginal Slight Moderate High
Visibility (sm) >5 3≤X≤5 1≤X<3 0.5≤X<1 <0.5
Ceiling (100 ft) >30 10≤X≤30 4≤X<10 2≤X<4 <2
Wind Speed (kt) <15 15≤X<25 25≤X<30 ≥30
Wind Gust (kt) <15 15≤X<25 25≤X<35 ≥35
Weather No Wx Reported VCTS -TS,-FZRA TS,FZRA +TS,+FZRA
TAF
KATL 171952Z 1720/1824 20007KT P6SM SCT050
  TEMPO 1720/1723 VRB10G20KT 3SM TSRA BKN040CB
  FM180200 19005KT P6SM BKN250
  FM181100 19003KT P6SM BKN012
  FM181400 22005KT P6SM BKN025
  FM181700 22006KT P6SM VCSH BKN035
  PROB30 1819/1823 4SM TSRA OVC025CB


METAR
KATL 172052Z 21006KT 10SM FEW040CB FEW070 SCT100 SCT250 31/21 A3001 RMK AO2 RAB09E43 SLP152 CB SE DSNT E MOV NE TCU DSNT NE-E SHRA VC SE P0000 60000 T03110206 56015
KATL 171952Z 19008KT 10SM FEW040CB SCT050TCU SCT250 32/19 A3002 RMK AO2 SLP155 CB SW DSNT SW MOV NE TCU ALQDS SHRA VC SW T03170189
KATL 171852Z 17007KT 10SM SCT050 SCT250 32/19 A3004 RMK AO2 SLP160 CB DSNT SE-SW DSNT NW-N TCU DSNT SE MDT CU ALQDS T03170194

Radar Display
Forecast Discussion